sensor_id;sensor_type;location;lat;lon;timestamp;temperature;humidity
23715;DHT22;12036;50.858;4.472;2022-10-13T00:00:37;13.90;99.90
23715;DHT22;12036;50.858;4.472;2022-10-13T00:03:02;13.80;99.90
23715;DHT22;12036;50.858;4.472;2022-10-13T00:05:29;13.80;99.90
23715;DHT22;12036;50.858;4.472;2022-10-13T00:07:55;13.80;99.90
23715;DHT22;12036;50.858;4.472;2022-10-13T00:10:20;13.80;99.90
23715;DHT22;12036;50.858;4.472;2022-10-13T00:12:46;13.80;99.90
23715;DHT22;12036;50.858;4.472;2022-10-13T00:15:12;13.70;99.90
23715;DHT22;12036;50.858;4.472;2022-10-13T00:17:38;13.70;99.90
23715;DHT22;12036;50.858;4.472;2022-10-13T00:20:05;13.60;99.90
23715;DHT22;12036;50.858;4.472;2022-10-13T00:22:31;13.60;99.90
23715;DHT22;12036;50.858;4.472;2022-10-13T00:24:57;13.70;99.90
23715;DHT22;12036;50.858;4.472;2022-10-13T00:27:23;13.70;99.90
23715;DHT22;12036;50.858;4.472;2022-10-13T00:29:49;13.70;99.90
23715;DHT22;12036;50.858;4.472;2022-10-13T00:32:15;13.60;99.90
23715;DHT22;12036;50.858;4.472;2022-10-13T00:34:41;13.60;99.90
23715;DHT22;12036;50.858;4.472;2022-10-13T00:37:06;13.70;99.90
23715;DHT22;12036;50.858;4.472;2022-10-13T00:39:32;13.60;99.90
23715;DHT22;12036;50.858;4.472;2022-10-13T00:41:58;13.60;99.90
23715;DHT22;12036;50.858;4.472;2022-10-13T00:47:26;13.60;99.90
23715;DHT22;12036;50.858;4.472;2022-10-13T00:49:53;13.60;99.90
23715;DHT22;12036;50.858;4.472;2022-10-13T00:52:21;13.60;99.90
23715;DHT22;12036;50.858;4.472;2022-10-13T00:54:48;13.60;99.90
23715;DHT22;12036;50.858;4.472;2022-10-13T00:57:14;13.60;99.90
23715;DHT22;12036;50.858;4.472;2022-10-13T00:59:40;13.60;99.90
23715;DHT22;12036;50.858;4.472;2022-10-13T01:02:06;13.60;99.90
23715;DHT22;12036;50.858;4.472;2022-10-13T01:04:37;13.60;99.90
23715;DHT22;12036;50.858;4.472;2022-10-13T01:07:04;13.60;99.90
23715;DHT22;12036;50.858;4.472;2022-10-13T01:09:30;13.60;99.90
23715;DHT22;12036;50.858;4.472;2022-10-13T01:14:45;13.60;99.90
23715;DHT22;12036;50.858;4.472;2022-10-13T01:17:29;13.60;99.90
23715;DHT22;12036;50.858;4.472;2022-10-13T01:30:22;13.60;99.90
23715;DHT22;12036;50.858;4.472;2022-10-13T01:32:57;13.60;99.90
23715;DHT22;12036;50.858;4.472;2022-10-13T01:38:27;13.60;99.90
23715;DHT22;12036;50.858;4.472;2022-10-13T01:43:48;13.50;99.90
23715;DHT22;12036;50.858;4.472;2022-10-13T01:46:21;13.50;99.90
23715;DHT22;12036;50.858;4.472;2022-10-13T01:48:48;13.50;99.90
23715;DHT22;12036;50.858;4.472;2022-10-13T01:51:18;13.50;99.90
23715;DHT22;12036;50.858;4.472;2022-10-13T01:53:45;13.40;99.90
23715;DHT22;12036;50.858;4.472;2022-10-13T01:56:11;13.40;99.90
23715;DHT22;12036;50.858;4.472;2022-10-13T01:58:37;13.40;99.90
23715;DHT22;12036;50.858;4.472;2022-10-13T02:03:51;13.40;99.90
23715;DHT22;12036;50.858;4.472;2022-10-13T02:06:27;13.40;99.90
23715;DHT22;12036;50.858;4.472;2022-10-13T02:09:10;13.40;99.90
23715;DHT22;12036;50.858;4.472;2022-10-13T02:11:47;13.40;99.90
23715;DHT22;12036;50.858;4.472;2022-10-13T02:14:35;13.40;99.90
23715;DHT22;12036;50.858;4.472;2022-10-13T02:17:03;13.30;99.90
23715;DHT22;12036;50.858;4.472;2022-10-13T02:19:33;13.30;99.90
23715;DHT22;12036;50.858;4.472;2022-10-13T02:21:59;13.30;99.90
23715;DHT22;12036;50.858;4.472;2022-10-13T02:24:25;13.40;99.90
23715;DHT22;12036;50.858;4.472;2022-10-13T02:26:51;13.30;99.90
23715;DHT22;12036;50.858;4.472;2022-10-13T02:29:17;13.30;99.90
23715;DHT22;12036;50.858;4.472;2022-10-13T02:31:44;13.30;99.90
23715;DHT22;12036;50.858;4.472;2022-10-13T02:34:11;13.20;99.90
23715;DHT22;12036;50.858;4.472;2022-10-13T02:36:37;13.20;99.90
23715;DHT22;12036;50.858;4.472;2022-10-13T02:39:08;13.20;99.90
23715;DHT22;12036;50.858;4.472;2022-10-13T02:41:34;13.20;99.90
23715;DHT22;12036;50.858;4.472;2022-10-13T02:44:00;13.20;99.90
23715;DHT22;12036;50.858;4.472;2022-10-13T02:46:25;13.10;99.90
23715;DHT22;12036;50.858;4.472;2022-10-13T02:48:51;13.20;99.90
23715;DHT22;12036;50.858;4.472;2022-10-13T02:51:17;13.20;99.90
23715;DHT22;12036;50.858;4.472;2022-10-13T02:53:42;13.20;99.90
23715;DHT22;12036;50.858;4.472;2022-10-13T02:56:08;13.20;99.90
23715;DHT22;12036;50.858;4.472;2022-10-13T02:58:34;13.10;99.90
23715;DHT22;12036;50.858;4.472;2022-10-13T03:01:08;13.10;99.90
23715;DHT22;12036;50.858;4.472;2022-10-13T03:03:34;13.20;99.90
23715;DHT22;12036;50.858;4.472;2022-10-13T03:06:00;13.10;99.90
23715;DHT22;12036;50.858;4.472;2022-10-13T03:08:26;13.10;99.90
23715;DHT22;12036;50.858;4.472;2022-10-13T03:10:52;13.10;99.90
23715;DHT22;12036;50.858;4.472;2022-10-13T03:13:18;13.00;99.90
23715;DHT22;12036;50.858;4.472;2022-10-13T03:15:44;13.00;99.90
23715;DHT22;12036;50.858;4.472;2022-10-13T03:18:10;13.00;99.90
23715;DHT22;12036;50.858;4.472;2022-10-13T03:20:36;13.00;99.90
23715;DHT22;12036;50.858;4.472;2022-10-13T03:23:02;13.00;99.90
23715;DHT22;12036;50.858;4.472;2022-10-13T03:25:27;13.00;99.90
23715;DHT22;12036;50.858;4.472;2022-10-13T03:27:54;13.00;99.90
23715;DHT22;12036;50.858;4.472;2022-10-13T03:30:20;13.00;99.90
23715;DHT22;12036;50.858;4.472;2022-10-13T03:32:46;13.00;99.90
23715;DHT22;12036;50.858;4.472;2022-10-13T03:35:12;13.10;99.90
23715;DHT22;12036;50.858;4.472;2022-10-13T03:37:37;13.10;99.90
23715;DHT22;12036;50.858;4.472;2022-10-13T03:40:04;13.00;99.90
23715;DHT22;12036;50.858;4.472;2022-10-13T03:42:29;13.00;99.90
23715;DHT22;12036;50.858;4.472;2022-10-13T03:44:55;13.10;99.90
23715;DHT22;12036;50.858;4.472;2022-10-13T03:47:20;13.10;99.90
23715;DHT22;12036;50.858;4.472;2022-10-13T03:49:46;13.10;99.90
23715;DHT22;12036;50.858;4.472;2022-10-13T03:52:12;13.10;99.90
23715;DHT22;12036;50.858;4.472;2022-10-13T03:54:37;13.10;99.90
23715;DHT22;12036;50.858;4.472;2022-10-13T03:57:03;13.10;99.90
23715;DHT22;12036;50.858;4.472;2022-10-13T03:59:29;13.10;99.90
23715;DHT22;12036;50.858;4.472;2022-10-13T04:01:55;13.10;99.90
23715;DHT22;12036;50.858;4.472;2022-10-13T04:04:21;13.20;99.90
23715;DHT22;12036;50.858;4.472;2022-10-13T04:06:46;13.20;99.90
23715;DHT22;12036;50.858;4.472;2022-10-13T04:09:12;13.10;99.90
23715;DHT22;12036;50.858;4.472;2022-10-13T04:11:38;13.20;99.90
23715;DHT22;12036;50.858;4.472;2022-10-13T04:14:03;13.20;99.90
23715;DHT22;12036;50.858;4.472;2022-10-13T04:16:29;13.20;99.90
23715;DHT22;12036;50.858;4.472;2022-10-13T04:19:00;13.20;99.90
23715;DHT22;12036;50.858;4.472;2022-10-13T04:21:27;13.20;99.90
23715;DHT22;12036;50.858;4.472;2022-10-13T04:23:55;13.20;99.90
23715;DHT22;12036;50.858;4.472;2022-10-13T04:26:23;13.20;99.90
23715;DHT22;12036;50.858;4.472;2022-10-13T04:28:50;13.20;99.90
23715;DHT22;12036;50.858;4.472;2022-10-13T04:31:16;13.20;99.90
23715;DHT22;12036;50.858;4.472;2022-10-13T04:33:43;13.20;99.90
23715;DHT22;12036;50.858;4.472;2022-10-13T04:36:11;13.20;99.90
23715;DHT22;12036;50.858;4.472;2022-10-13T04:38:37;13.20;99.90
23715;DHT22;12036;50.858;4.472;2022-10-13T04:41:04;13.20;99.90
23715;DHT22;12036;50.858;4.472;2022-10-13T04:43:30;13.10;99.90
23715;DHT22;12036;50.858;4.472;2022-10-13T04:46:21;13.10;99.90
23715;DHT22;12036;50.858;4.472;2022-10-13T04:48:48;13.10;99.90
23715;DHT22;12036;50.858;4.472;2022-10-13T04:51:16;13.20;99.90
23715;DHT22;12036;50.858;4.472;2022-10-13T04:53:43;13.20;99.90
23715;DHT22;12036;50.858;4.472;2022-10-13T04:56:13;13.10;99.90
23715;DHT22;12036;50.858;4.472;2022-10-13T04:58:39;13.20;99.90
23715;DHT22;12036;50.858;4.472;2022-10-13T05:01:07;13.10;99.90
23715;DHT22;12036;50.858;4.472;2022-10-13T05:03:33;13.10;99.90
23715;DHT22;12036;50.858;4.472;2022-10-13T05:05:59;13.20;99.90
23715;DHT22;12036;50.858;4.472;2022-10-13T05:08:25;13.10;99.90
23715;DHT22;12036;50.858;4.472;2022-10-13T05:10:59;13.10;99.90
23715;DHT22;12036;50.858;4.472;2022-10-13T05:13:27;13.20;99.90
23715;DHT22;12036;50.858;4.472;2022-10-13T05:15:53;13.10;99.90
23715;DHT22;12036;50.858;4.472;2022-10-13T05:18:18;13.00;99.90
23715;DHT22;12036;50.858;4.472;2022-10-13T05:20:44;13.10;99.90
23715;DHT22;12036;50.858;4.472;2022-10-13T05:23:11;13.10;99.90
23715;DHT22;12036;50.858;4.472;2022-10-13T05:25:37;13.00;99.90
23715;DHT22;12036;50.858;4.472;2022-10-13T05:28:04;13.10;99.90
23715;DHT22;12036;50.858;4.472;2022-10-13T05:30:31;13.10;99.90
23715;DHT22;12036;50.858;4.472;2022-10-13T05:32:57;13.10;99.90
23715;DHT22;12036;50.858;4.472;2022-10-13T05:35:23;13.10;99.90
23715;DHT22;12036;50.858;4.472;2022-10-13T05:37:49;13.10;99.90
23715;DHT22;12036;50.858;4.472;2022-10-13T05:40:15;13.10;99.90
23715;DHT22;12036;50.858;4.472;2022-10-13T05:42:40;13.10;99.90
23715;DHT22;12036;50.858;4.472;2022-10-13T05:45:08;13.10;99.90
23715;DHT22;12036;50.858;4.472;2022-10-13T05:47:34;13.10;99.90
23715;DHT22;12036;50.858;4.472;2022-10-13T05:50:00;13.10;99.90
23715;DHT22;12036;50.858;4.472;2022-10-13T05:52:26;13.00;99.90
23715;DHT22;12036;50.858;4.472;2022-10-13T05:54:59;13.00;99.90
23715;DHT22;12036;50.858;4.472;2022-10-13T05:57:30;13.00;99.90
23715;DHT22;12036;50.858;4.472;2022-10-13T06:00:16;13.10;99.90
23715;DHT22;12036;50.858;4.472;2022-10-13T06:02:52;13.10;99.90
23715;DHT22;12036;50.858;4.472;2022-10-13T06:05:21;13.10;99.90
23715;DHT22;12036;50.858;4.472;2022-10-13T06:07:48;13.10;99.90
23715;DHT22;12036;50.858;4.472;2022-10-13T06:10:14;13.10;99.90
23715;DHT22;12036;50.858;4.472;2022-10-13T06:12:40;13.10;99.90
23715;DHT22;12036;50.858;4.472;2022-10-13T06:15:06;13.10;99.90
23715;DHT22;12036;50.858;4.472;2022-10-13T06:17:35;13.10;99.90
23715;DHT22;12036;50.858;4.472;2022-10-13T06:20:03;13.10;99.90
23715;DHT22;12036;50.858;4.472;2022-10-13T06:22:31;13.00;99.90
23715;DHT22;12036;50.858;4.472;2022-10-13T06:24:57;13.10;99.90
23715;DHT22;12036;50.858;4.472;2022-10-13T06:27:22;13.10;99.90
23715;DHT22;12036;50.858;4.472;2022-10-13T06:29:48;13.10;99.90
23715;DHT22;12036;50.858;4.472;2022-10-13T06:32:14;13.10;99.90
23715;DHT22;12036;50.858;4.472;2022-10-13T06:34:39;13.10;99.90
23715;DHT22;12036;50.858;4.472;2022-10-13T06:37:05;13.10;99.90
23715;DHT22;12036;50.858;4.472;2022-10-13T06:39:31;13.20;99.90
23715;DHT22;12036;50.858;4.472;2022-10-13T06:41:56;13.20;99.90
23715;DHT22;12036;50.858;4.472;2022-10-13T06:44:22;13.20;99.90
23715;DHT22;12036;50.858;4.472;2022-10-13T06:46:49;13.30;99.90
23715;DHT22;12036;50.858;4.472;2022-10-13T06:49:14;13.30;99.90
23715;DHT22;12036;50.858;4.472;2022-10-13T06:51:40;13.30;99.90
23715;DHT22;12036;50.858;4.472;2022-10-13T06:54:06;13.30;99.90
23715;DHT22;12036;50.858;4.472;2022-10-13T06:56:32;13.30;99.90
23715;DHT22;12036;50.858;4.472;2022-10-13T06:58:58;13.40;99.90
23715;DHT22;12036;50.858;4.472;2022-10-13T07:01:23;13.40;99.90
23715;DHT22;12036;50.858;4.472;2022-10-13T07:03:50;13.40;99.90
23715;DHT22;12036;50.858;4.472;2022-10-13T07:06:16;13.50;99.90
23715;DHT22;12036;50.858;4.472;2022-10-13T07:08:42;13.50;99.90
23715;DHT22;12036;50.858;4.472;2022-10-13T07:11:10;13.60;99.90
23715;DHT22;12036;50.858;4.472;2022-10-13T07:13:40;13.50;99.90
23715;DHT22;12036;50.858;4.472;2022-10-13T07:16:07;13.50;99.90
23715;DHT22;12036;50.858;4.472;2022-10-13T07:18:33;13.60;99.90
23715;DHT22;12036;50.858;4.472;2022-10-13T07:20:59;13.50;99.90
23715;DHT22;12036;50.858;4.472;2022-10-13T07:23:26;13.50;99.90
23715;DHT22;12036;50.858;4.472;2022-10-13T07:25:52;13.60;99.90
23715;DHT22;12036;50.858;4.472;2022-10-13T07:28:20;13.60;99.90
23715;DHT22;12036;50.858;4.472;2022-10-13T07:30:46;13.70;99.90
23715;DHT22;12036;50.858;4.472;2022-10-13T07:33:11;13.70;99.90
23715;DHT22;12036;50.858;4.472;2022-10-13T07:35:37;13.80;99.90
23715;DHT22;12036;50.858;4.472;2022-10-13T07:38:04;13.70;99.90
23715;DHT22;12036;50.858;4.472;2022-10-13T07:40:30;13.80;99.90
23715;DHT22;12036;50.858;4.472;2022-10-13T07:42:56;13.60;99.90
23715;DHT22;12036;50.858;4.472;2022-10-13T07:45:22;13.60;99.90
23715;DHT22;12036;50.858;4.472;2022-10-13T07:47:47;13.60;99.90
23715;DHT22;12036;50.858;4.472;2022-10-13T07:50:13;13.50;99.90
23715;DHT22;12036;50.858;4.472;2022-10-13T07:52:39;13.50;99.90
23715;DHT22;12036;50.858;4.472;2022-10-13T07:55:05;13.50;99.90
23715;DHT22;12036;50.858;4.472;2022-10-13T07:57:31;13.50;99.90
23715;DHT22;12036;50.858;4.472;2022-10-13T07:59:57;13.60;99.90
23715;DHT22;12036;50.858;4.472;2022-10-13T08:02:22;13.60;99.90
23715;DHT22;12036;50.858;4.472;2022-10-13T08:04:48;13.50;99.90
23715;DHT22;12036;50.858;4.472;2022-10-13T08:07:14;13.50;99.90
23715;DHT22;12036;50.858;4.472;2022-10-13T08:09:41;13.60;99.90
23715;DHT22;12036;50.858;4.472;2022-10-13T08:12:07;13.50;99.90
23715;DHT22;12036;50.858;4.472;2022-10-13T08:14:33;13.50;99.90
23715;DHT22;12036;50.858;4.472;2022-10-13T08:16:59;13.50;99.90
23715;DHT22;12036;50.858;4.472;2022-10-13T08:19:25;13.60;99.90
23715;DHT22;12036;50.858;4.472;2022-10-13T08:21:53;13.50;99.90
23715;DHT22;12036;50.858;4.472;2022-10-13T08:24:18;13.50;99.90
23715;DHT22;12036;50.858;4.472;2022-10-13T08:26:45;13.50;99.90
23715;DHT22;12036;50.858;4.472;2022-10-13T08:29:11;13.60;99.90
23715;DHT22;12036;50.858;4.472;2022-10-13T08:31:37;13.70;99.90
23715;DHT22;12036;50.858;4.472;2022-10-13T08:34:03;13.70;99.90
23715;DHT22;12036;50.858;4.472;2022-10-13T08:36:29;13.80;99.90
23715;DHT22;12036;50.858;4.472;2022-10-13T08:38:54;13.90;99.90
23715;DHT22;12036;50.858;4.472;2022-10-13T08:41:25;14.00;99.90
23715;DHT22;12036;50.858;4.472;2022-10-13T08:43:55;14.10;99.90
23715;DHT22;12036;50.858;4.472;2022-10-13T08:46:38;14.20;99.90
23715;DHT22;12036;50.858;4.472;2022-10-13T08:49:06;14.40;99.90
23715;DHT22;12036;50.858;4.472;2022-10-13T08:51:32;14.50;99.90
23715;DHT22;12036;50.858;4.472;2022-10-13T08:53:58;14.60;99.90
23715;DHT22;12036;50.858;4.472;2022-10-13T08:56:26;14.70;99.90
23715;DHT22;12036;50.858;4.472;2022-10-13T08:58:53;14.70;99.90
23715;DHT22;12036;50.858;4.472;2022-10-13T09:06:35;14.60;99.90
23715;DHT22;12036;50.858;4.472;2022-10-13T09:09:07;14.70;99.90
23715;DHT22;12036;50.858;4.472;2022-10-13T09:11:45;14.60;99.90
23715;DHT22;12036;50.858;4.472;2022-10-13T09:14:31;14.60;99.90
23715;DHT22;12036;50.858;4.472;2022-10-13T09:17:18;14.60;99.90
23715;DHT22;12036;50.858;4.472;2022-10-13T09:19:55;14.60;99.90
23715;DHT22;12036;50.858;4.472;2022-10-13T09:22:30;14.60;99.90
23715;DHT22;12036;50.858;4.472;2022-10-13T09:30:39;14.80;99.90
23715;DHT22;12036;50.858;4.472;2022-10-13T09:38:27;14.70;99.90
23715;DHT22;12036;50.858;4.472;2022-10-13T09:40:58;14.70;99.90
23715;DHT22;12036;50.858;4.472;2022-10-13T09:43:38;14.70;99.90
23715;DHT22;12036;50.858;4.472;2022-10-13T09:46:32;14.70;99.90
23715;DHT22;12036;50.858;4.472;2022-10-13T09:49:03;14.80;99.90
23715;DHT22;12036;50.858;4.472;2022-10-13T09:53:56;14.80;99.90
23715;DHT22;12036;50.858;4.472;2022-10-13T09:56:45;14.80;99.90
23715;DHT22;12036;50.858;4.472;2022-10-13T09:59:25;14.90;99.90
23715;DHT22;12036;50.858;4.472;2022-10-13T10:01:52;14.80;99.90
23715;DHT22;12036;50.858;4.472;2022-10-13T10:04:27;14.80;99.90
23715;DHT22;12036;50.858;4.472;2022-10-13T10:06:54;14.80;99.90
23715;DHT22;12036;50.858;4.472;2022-10-13T10:09:36;14.90;99.90
23715;DHT22;12036;50.858;4.472;2022-10-13T10:12:05;15.00;99.90
23715;DHT22;12036;50.858;4.472;2022-10-13T10:14:36;15.20;99.90
23715;DHT22;12036;50.858;4.472;2022-10-13T10:19:46;15.40;99.90
23715;DHT22;12036;50.858;4.472;2022-10-13T10:22:23;15.50;99.90
23715;DHT22;12036;50.858;4.472;2022-10-13T10:27:29;15.60;99.90
23715;DHT22;12036;50.858;4.472;2022-10-13T10:30:02;15.60;99.90
23715;DHT22;12036;50.858;4.472;2022-10-13T10:32:39;15.60;99.90
23715;DHT22;12036;50.858;4.472;2022-10-13T10:35:11;15.50;99.90
23715;DHT22;12036;50.858;4.472;2022-10-13T10:38:02;15.50;99.90
23715;DHT22;12036;50.858;4.472;2022-10-13T10:40:44;15.30;99.90
23715;DHT22;12036;50.858;4.472;2022-10-13T10:45:59;15.10;99.90
23715;DHT22;12036;50.858;4.472;2022-10-13T10:48:46;15.00;99.90
23715;DHT22;12036;50.858;4.472;2022-10-13T10:51:12;14.90;99.90
23715;DHT22;12036;50.858;4.472;2022-10-13T10:53:56;14.80;99.90
23715;DHT22;12036;50.858;4.472;2022-10-13T10:56:42;14.70;99.90
23715;DHT22;12036;50.858;4.472;2022-10-13T10:59:42;14.70;99.90
23715;DHT22;12036;50.858;4.472;2022-10-13T11:04:52;14.60;99.90
23715;DHT22;12036;50.858;4.472;2022-10-13T11:17:35;14.40;99.90
23715;DHT22;12036;50.858;4.472;2022-10-13T11:25:44;14.30;99.90
23715;DHT22;12036;50.858;4.472;2022-10-13T11:31:27;14.20;99.90
23715;DHT22;12036;50.858;4.472;2022-10-13T11:33:55;14.10;99.90
23715;DHT22;12036;50.858;4.472;2022-10-13T11:42:37;14.00;99.90
23715;DHT22;12036;50.858;4.472;2022-10-13T11:45:10;14.00;99.90
23715;DHT22;12036;50.858;4.472;2022-10-13T11:50:33;14.10;99.90
23715;DHT22;12036;50.858;4.472;2022-10-13T11:53:23;14.20;99.90
23715;DHT22;12036;50.858;4.472;2022-10-13T11:55:55;14.30;99.90
23715;DHT22;12036;50.858;4.472;2022-10-13T11:58:24;14.30;99.90
23715;DHT22;12036;50.858;4.472;2022-10-13T12:01:00;14.40;99.90
23715;DHT22;12036;50.858;4.472;2022-10-13T12:03:32;14.60;99.90
23715;DHT22;12036;50.858;4.472;2022-10-13T12:06:02;14.70;99.90
23715;DHT22;12036;50.858;4.472;2022-10-13T12:08:31;14.90;99.90
23715;DHT22;12036;50.858;4.472;2022-10-13T12:11:00;14.90;99.90
23715;DHT22;12036;50.858;4.472;2022-10-13T12:13:31;14.90;99.90
23715;DHT22;12036;50.858;4.472;2022-10-13T12:16:05;15.00;99.90
23715;DHT22;12036;50.858;4.472;2022-10-13T12:18:36;15.10;99.90
23715;DHT22;12036;50.858;4.472;2022-10-13T12:21:10;15.10;99.90
23715;DHT22;12036;50.858;4.472;2022-10-13T12:23:36;15.20;99.90
23715;DHT22;12036;50.858;4.472;2022-10-13T12:26:02;15.20;99.90
23715;DHT22;12036;50.858;4.472;2022-10-13T12:28:51;15.20;99.90
23715;DHT22;12036;50.858;4.472;2022-10-13T12:31:26;15.00;99.90
23715;DHT22;12036;50.858;4.472;2022-10-13T12:34:00;15.10;99.90
23715;DHT22;12036;50.858;4.472;2022-10-13T12:36:33;15.10;99.90
23715;DHT22;12036;50.858;4.472;2022-10-13T12:39:11;15.20;99.90
23715;DHT22;12036;50.858;4.472;2022-10-13T12:41:41;15.20;99.90
23715;DHT22;12036;50.858;4.472;2022-10-13T12:44:12;15.20;99.90
23715;DHT22;12036;50.858;4.472;2022-10-13T12:46:44;15.30;99.90
23715;DHT22;12036;50.858;4.472;2022-10-13T12:49:14;15.20;99.90
23715;DHT22;12036;50.858;4.472;2022-10-13T12:51:43;15.20;99.90
23715;DHT22;12036;50.858;4.472;2022-10-13T12:54:28;15.20;99.90
23715;DHT22;12036;50.858;4.472;2022-10-13T12:56:59;15.20;99.90
23715;DHT22;12036;50.858;4.472;2022-10-13T12:59:28;15.20;99.90
23715;DHT22;12036;50.858;4.472;2022-10-13T13:02:00;15.20;99.90
23715;DHT22;12036;50.858;4.472;2022-10-13T13:04:41;15.30;99.90
23715;DHT22;12036;50.858;4.472;2022-10-13T13:07:34;15.30;99.90
23715;DHT22;12036;50.858;4.472;2022-10-13T13:12:34;15.30;99.90
23715;DHT22;12036;50.858;4.472;2022-10-13T13:15:39;15.20;99.90
23715;DHT22;12036;50.858;4.472;2022-10-13T13:20:53;15.20;99.90
23715;DHT22;12036;50.858;4.472;2022-10-13T13:23:20;15.10;99.90
23715;DHT22;12036;50.858;4.472;2022-10-13T13:25:47;15.00;99.90
23715;DHT22;12036;50.858;4.472;2022-10-13T13:28:29;14.90;99.90
23715;DHT22;12036;50.858;4.472;2022-10-13T13:30:55;14.80;99.90
23715;DHT22;12036;50.858;4.472;2022-10-13T13:33:20;14.70;99.90
23715;DHT22;12036;50.858;4.472;2022-10-13T13:35:46;14.70;99.90
23715;DHT22;12036;50.858;4.472;2022-10-13T13:38:13;14.60;99.90
23715;DHT22;12036;50.858;4.472;2022-10-13T13:40:39;14.60;99.90
23715;DHT22;12036;50.858;4.472;2022-10-13T13:43:05;14.50;99.90
23715;DHT22;12036;50.858;4.472;2022-10-13T13:45:32;14.60;99.90
23715;DHT22;12036;50.858;4.472;2022-10-13T13:47:59;14.60;99.90
23715;DHT22;12036;50.858;4.472;2022-10-13T13:50:27;14.60;99.90
23715;DHT22;12036;50.858;4.472;2022-10-13T13:52:56;14.60;99.90
23715;DHT22;12036;50.858;4.472;2022-10-13T13:55:22;14.60;99.90
23715;DHT22;12036;50.858;4.472;2022-10-13T13:57:48;14.50;99.90
23715;DHT22;12036;50.858;4.472;2022-10-13T14:00:15;14.50;99.90
23715;DHT22;12036;50.858;4.472;2022-10-13T14:02:42;14.50;99.90
23715;DHT22;12036;50.858;4.472;2022-10-13T14:05:09;14.50;99.90
23715;DHT22;12036;50.858;4.472;2022-10-13T14:07:35;14.40;99.90
23715;DHT22;12036;50.858;4.472;2022-10-13T14:10:01;14.40;99.90
23715;DHT22;12036;50.858;4.472;2022-10-13T14:12:28;14.50;99.90
23715;DHT22;12036;50.858;4.472;2022-10-13T14:14:54;14.50;99.90
23715;DHT22;12036;50.858;4.472;2022-10-13T14:17:21;14.50;99.90
23715;DHT22;12036;50.858;4.472;2022-10-13T14:19:46;14.50;99.90
23715;DHT22;12036;50.858;4.472;2022-10-13T14:22:12;14.50;99.90
23715;DHT22;12036;50.858;4.472;2022-10-13T14:24:37;14.40;99.90
23715;DHT22;12036;50.858;4.472;2022-10-13T14:27:03;14.30;99.90
23715;DHT22;12036;50.858;4.472;2022-10-13T14:29:29;14.30;99.90
23715;DHT22;12036;50.858;4.472;2022-10-13T14:31:54;14.30;99.90
23715;DHT22;12036;50.858;4.472;2022-10-13T14:34:20;14.40;99.90
23715;DHT22;12036;50.858;4.472;2022-10-13T14:36:46;14.40;99.90
23715;DHT22;12036;50.858;4.472;2022-10-13T14:39:12;14.50;99.90
23715;DHT22;12036;50.858;4.472;2022-10-13T14:41:38;14.50;99.90
23715;DHT22;12036;50.858;4.472;2022-10-13T14:44:04;14.60;99.90
23715;DHT22;12036;50.858;4.472;2022-10-13T14:46:29;14.60;99.90
23715;DHT22;12036;50.858;4.472;2022-10-13T14:48:55;14.60;99.90
23715;DHT22;12036;50.858;4.472;2022-10-13T14:51:23;14.70;99.90
23715;DHT22;12036;50.858;4.472;2022-10-13T14:53:49;14.70;99.90
23715;DHT22;12036;50.858;4.472;2022-10-13T14:58:48;14.70;99.90
23715;DHT22;12036;50.858;4.472;2022-10-13T15:01:14;14.70;99.90
23715;DHT22;12036;50.858;4.472;2022-10-13T15:03:40;14.70;99.90
23715;DHT22;12036;50.858;4.472;2022-10-13T15:06:07;14.60;99.90
23715;DHT22;12036;50.858;4.472;2022-10-13T15:08:35;14.70;99.90
23715;DHT22;12036;50.858;4.472;2022-10-13T15:11:01;14.70;99.90
23715;DHT22;12036;50.858;4.472;2022-10-13T15:13:27;14.60;99.90
23715;DHT22;12036;50.858;4.472;2022-10-13T15:15:54;14.50;99.90
23715;DHT22;12036;50.858;4.472;2022-10-13T15:18:20;14.50;99.90
23715;DHT22;12036;50.858;4.472;2022-10-13T15:20:46;14.50;99.90
23715;DHT22;12036;50.858;4.472;2022-10-13T15:23:13;14.50;99.90
23715;DHT22;12036;50.858;4.472;2022-10-13T15:25:39;14.50;99.90
23715;DHT22;12036;50.858;4.472;2022-10-13T15:28:06;14.50;99.90
23715;DHT22;12036;50.858;4.472;2022-10-13T15:30:34;14.30;99.90
23715;DHT22;12036;50.858;4.472;2022-10-13T15:33:00;14.30;99.90
23715;DHT22;12036;50.858;4.472;2022-10-13T15:35:29;14.20;99.90
23715;DHT22;12036;50.858;4.472;2022-10-13T15:37:55;14.20;99.90
23715;DHT22;12036;50.858;4.472;2022-10-13T15:40:20;14.30;99.90
23715;DHT22;12036;50.858;4.472;2022-10-13T15:42:46;14.20;99.90
23715;DHT22;12036;50.858;4.472;2022-10-13T15:45:12;14.10;99.90
23715;DHT22;12036;50.858;4.472;2022-10-13T15:47:38;14.00;99.90
23715;DHT22;12036;50.858;4.472;2022-10-13T15:50:03;14.10;99.90
23715;DHT22;12036;50.858;4.472;2022-10-13T15:52:29;14.10;99.90
23715;DHT22;12036;50.858;4.472;2022-10-13T15:54:55;14.10;99.90
23715;DHT22;12036;50.858;4.472;2022-10-13T15:57:21;14.00;99.90
23715;DHT22;12036;50.858;4.472;2022-10-13T15:59:46;14.00;99.90
23715;DHT22;12036;50.858;4.472;2022-10-13T16:02:12;13.90;99.90
23715;DHT22;12036;50.858;4.472;2022-10-13T16:04:38;13.90;99.90
23715;DHT22;12036;50.858;4.472;2022-10-13T16:07:04;13.90;99.90
23715;DHT22;12036;50.858;4.472;2022-10-13T16:09:29;14.00;99.90
23715;DHT22;12036;50.858;4.472;2022-10-13T16:11:55;14.00;99.90
23715;DHT22;12036;50.858;4.472;2022-10-13T16:14:21;14.00;99.90
23715;DHT22;12036;50.858;4.472;2022-10-13T16:16:47;14.00;99.90
23715;DHT22;12036;50.858;4.472;2022-10-13T16:19:12;13.90;99.90
23715;DHT22;12036;50.858;4.472;2022-10-13T16:21:38;13.90;99.90
23715;DHT22;12036;50.858;4.472;2022-10-13T16:24:04;13.90;99.90
23715;DHT22;12036;50.858;4.472;2022-10-13T16:26:30;14.00;99.90
23715;DHT22;12036;50.858;4.472;2022-10-13T16:28:56;13.90;99.90
23715;DHT22;12036;50.858;4.472;2022-10-13T16:31:23;13.90;99.90
23715;DHT22;12036;50.858;4.472;2022-10-13T16:33:48;13.90;99.90
23715;DHT22;12036;50.858;4.472;2022-10-13T16:36:16;13.90;99.90
23715;DHT22;12036;50.858;4.472;2022-10-13T16:38:44;13.90;99.90
23715;DHT22;12036;50.858;4.472;2022-10-13T16:41:16;13.90;99.90
23715;DHT22;12036;50.858;4.472;2022-10-13T16:43:43;14.00;99.90
23715;DHT22;12036;50.858;4.472;2022-10-13T16:46:10;14.00;99.90
23715;DHT22;12036;50.858;4.472;2022-10-13T16:48:38;13.90;99.90
23715;DHT22;12036;50.858;4.472;2022-10-13T16:51:05;13.80;99.90
23715;DHT22;12036;50.858;4.472;2022-10-13T16:53:31;13.80;99.90
23715;DHT22;12036;50.858;4.472;2022-10-13T16:55:57;13.80;99.90
23715;DHT22;12036;50.858;4.472;2022-10-13T16:58:22;13.80;99.90
23715;DHT22;12036;50.858;4.472;2022-10-13T17:00:48;13.80;99.90
23715;DHT22;12036;50.858;4.472;2022-10-13T17:03:14;13.90;99.90
23715;DHT22;12036;50.858;4.472;2022-10-13T17:05:39;13.90;99.90
23715;DHT22;12036;50.858;4.472;2022-10-13T17:08:05;13.80;99.90